sensor_id;sensor_type;location;lat;lon;timestamp;pressure;altitude;pressure_sealevel;temperature;humidity
18436;BME280;9346;52.006;4.720;2023-03-23T00:01:58;100015.47;;;13.15;100.00
18436;BME280;9346;52.006;4.720;2023-03-23T00:04:25;100025.38;;;13.16;100.00
18436;BME280;9346;52.006;4.720;2023-03-23T00:06:52;100019.66;;;13.12;100.00
18436;BME280;9346;52.006;4.720;2023-03-23T00:09:19;100019.66;;;13.12;100.00
18436;BME280;9346;52.006;4.720;2023-03-23T00:11:49;100011.06;;;13.14;100.00
18436;BME280;9346;52.006;4.720;2023-03-23T00:14:16;100013.00;;;13.13;100.00
18436;BME280;9346;52.006;4.720;2023-03-23T00:16:48;100016.38;;;13.10;100.00
18436;BME280;9346;52.006;4.720;2023-03-23T00:19:18;100017.00;;;13.07;100.00
18436;BME280;9346;52.006;4.720;2023-03-23T00:21:46;100014.25;;;13.07;100.00
18436;BME280;9346;52.006;4.720;2023-03-23T00:24:14;100007.56;;;13.08;100.00
18436;BME280;9346;52.006;4.720;2023-03-23T00:26:44;100001.72;;;13.10;100.00
18436;BME280;9346;52.006;4.720;2023-03-23T00:29:13;99993.44;;;13.10;100.00
18436;BME280;9346;52.006;4.720;2023-03-23T00:31:41;99994.88;;;13.07;100.00
18436;BME280;9346;52.006;4.720;2023-03-23T00:34:12;99989.66;;;13.06;100.00
18436;BME280;9346;52.006;4.720;2023-03-23T00:36:47;99993.25;;;13.06;100.00
18436;BME280;9346;52.006;4.720;2023-03-23T00:39:14;99984.44;;;13.04;100.00
18436;BME280;9346;52.006;4.720;2023-03-23T00:41:43;99989.97;;;13.04;100.00
18436;BME280;9346;52.006;4.720;2023-03-23T00:44:10;99985.59;;;13.03;100.00
18436;BME280;9346;52.006;4.720;2023-03-23T00:46:41;99988.34;;;13.03;100.00
18436;BME280;9346;52.006;4.720;2023-03-23T00:49:11;99973.09;;;13.06;100.00
18436;BME280;9346;52.006;4.720;2023-03-23T00:51:39;99970.13;;;13.02;100.00
18436;BME280;9346;52.006;4.720;2023-03-23T00:54:08;99979.22;;;13.03;100.00
18436;BME280;9346;52.006;4.720;2023-03-23T00:56:36;99967.56;;;13.06;100.00
18436;BME280;9346;52.006;4.720;2023-03-23T00:59:04;99972.91;;;13.02;100.00
18436;BME280;9346;52.006;4.720;2023-03-23T01:01:31;99972.06;;;13.02;100.00
18436;BME280;9346;52.006;4.720;2023-03-23T01:03:58;99968.47;;;13.01;100.00
18436;BME280;9346;52.006;4.720;2023-03-23T01:06:26;99989.78;;;13.01;100.00
18436;BME280;9346;52.006;4.720;2023-03-23T01:08:56;99985.06;;;13.01;100.00
18436;BME280;9346;52.006;4.720;2023-03-23T01:11:25;99962.16;;;13.01;100.00
18436;BME280;9346;52.006;4.720;2023-03-23T01:13:52;99956.00;;;13.04;100.00
18436;BME280;9346;52.006;4.720;2023-03-23T01:16:19;99956.00;;;13.04;100.00
18436;BME280;9346;52.006;4.720;2023-03-23T01:18:47;99956.00;;;13.04;100.00
18436;BME280;9346;52.006;4.720;2023-03-23T01:21:16;99947.19;;;13.02;100.00
18436;BME280;9346;52.006;4.720;2023-03-23T01:23:44;99939.22;;;13.00;100.00
18436;BME280;9346;52.006;4.720;2023-03-23T01:26:13;99948.66;;;12.99;100.00
18436;BME280;9346;52.006;4.720;2023-03-23T01:28:42;99950.34;;;12.95;100.00
18436;BME280;9346;52.006;4.720;2023-03-23T01:31:12;99941.25;;;12.95;100.00
18436;BME280;9346;52.006;4.720;2023-03-23T01:33:41;99937.97;;;12.93;100.00
18436;BME280;9346;52.006;4.720;2023-03-23T01:36:12;99941.88;;;12.92;100.00
18436;BME280;9346;52.006;4.720;2023-03-23T01:38:41;99946.25;;;12.93;100.00
18436;BME280;9346;52.006;4.720;2023-03-23T01:41:08;99944.31;;;12.93;100.00
18436;BME280;9346;52.006;4.720;2023-03-23T01:43:35;99951.16;;;12.96;100.00
18436;BME280;9346;52.006;4.720;2023-03-23T01:46:04;99953.09;;;12.95;100.00
18436;BME280;9346;52.006;4.720;2023-03-23T01:48:33;99943.41;;;12.98;100.00
18436;BME280;9346;52.006;4.720;2023-03-23T01:51:04;99916.84;;;12.97;100.00
18436;BME280;9346;52.006;4.720;2023-03-23T01:53:37;99922.09;;;12.98;100.00
18436;BME280;9346;52.006;4.720;2023-03-23T01:56:06;99921.91;;;12.95;100.00
18436;BME280;9346;52.006;4.720;2023-03-23T01:58:39;99914.41;;;12.95;100.00
18436;BME280;9346;52.006;4.720;2023-03-23T02:01:12;99924.97;;;12.93;100.00
18436;BME280;9346;52.006;4.720;2023-03-23T02:03:43;99912.25;;;12.92;100.00
18436;BME280;9346;52.006;4.720;2023-03-23T02:06:10;99930.19;;;12.95;100.00
18436;BME280;9346;52.006;4.720;2023-03-23T02:08:38;99923.00;;;12.94;100.00
18436;BME280;9346;52.006;4.720;2023-03-23T02:11:12;99938.81;;;12.93;100.00
18436;BME280;9346;52.006;4.720;2023-03-23T02:13:40;99927.53;;;12.90;100.00
18436;BME280;9346;52.006;4.720;2023-03-23T02:16:14;99923.31;;;12.92;100.00
18436;BME280;9346;52.006;4.720;2023-03-23T02:18:57;99930.00;;;12.91;100.00
18436;BME280;9346;52.006;4.720;2023-03-23T02:22:08;99940.44;;;12.94;100.00
18436;BME280;9346;52.006;4.720;2023-03-23T02:24:55;99939.41;;;12.90;100.00
18436;BME280;9346;52.006;4.720;2023-03-23T02:27:41;99928.38;;;12.90;100.00
18436;BME280;9346;52.006;4.720;2023-03-23T02:30:32;99933.88;;;12.90;100.00
18436;BME280;9346;52.006;4.720;2023-03-23T02:33:43;99935.34;;;12.88;100.00
18436;BME280;9346;52.006;4.720;2023-03-23T02:36:19;99927.22;;;12.91;100.00
18436;BME280;9346;52.006;4.720;2023-03-23T02:38:56;99933.56;;;12.92;100.00
18436;BME280;9346;52.006;4.720;2023-03-23T02:41:29;99911.16;;;12.93;100.00
18436;BME280;9346;52.006;4.720;2023-03-23T02:43:56;99923.84;;;12.94;100.00
18436;BME280;9346;52.006;4.720;2023-03-23T02:46:25;99918.09;;;12.91;100.00
18436;BME280;9346;52.006;4.720;2023-03-23T02:48:55;99914.72;;;12.94;100.00
18436;BME280;9346;52.006;4.720;2023-03-23T02:51:24;99916.84;;;12.97;100.00
18436;BME280;9346;52.006;4.720;2023-03-23T02:53:55;99923.84;;;12.94;100.00
18436;BME280;9346;52.006;4.720;2023-03-23T02:56:25;99924.16;;;12.93;100.00
18436;BME280;9346;52.006;4.720;2023-03-23T02:58:53;99924.66;;;12.95;100.00
18436;BME280;9346;52.006;4.720;2023-03-23T03:01:48;99911.34;;;12.97;100.00
18436;BME280;9346;52.006;4.720;2023-03-23T03:04:21;99912.16;;;12.97;100.00
18436;BME280;9346;52.006;4.720;2023-03-23T03:06:54;99917.69;;;12.97;100.00
18436;BME280;9346;52.006;4.720;2023-03-23T03:09:31;99919.13;;;12.95;100.00
18436;BME280;9346;52.006;4.720;2023-03-23T03:12:07;99920.69;;;13.01;100.00
18436;BME280;9346;52.006;4.720;2023-03-23T03:14:38;99906.88;;;13.01;100.00
18436;BME280;9346;52.006;4.720;2023-03-23T03:17:13;99896.59;;;13.01;100.00
18436;BME280;9346;52.006;4.720;2023-03-23T03:19:48;99893.06;;;13.01;100.00
18436;BME280;9346;52.006;4.720;2023-03-23T03:22:17;99900.81;;;12.99;100.00
18436;BME280;9346;52.006;4.720;2023-03-23T03:24:47;99904.19;;;12.96;100.00
18436;BME280;9346;52.006;4.720;2023-03-23T03:27:17;99900.09;;;12.93;100.00
18436;BME280;9346;52.006;4.720;2023-03-23T03:29:47;99907.38;;;12.89;100.00
18436;BME280;9346;52.006;4.720;2023-03-23T03:32:19;99898.28;;;12.89;100.00
18436;BME280;9346;52.006;4.720;2023-03-23T03:34:49;99904.41;;;12.86;100.00
18436;BME280;9346;52.006;4.720;2023-03-23T03:37:18;99916.09;;;12.83;100.00
18436;BME280;9346;52.006;4.720;2023-03-23T03:39:46;99905.34;;;12.81;100.00
18436;BME280;9346;52.006;4.720;2023-03-23T03:42:13;99913.63;;;12.81;100.00
18436;BME280;9346;52.006;4.720;2023-03-23T03:44:40;99919.47;;;12.80;100.00
18436;BME280;9346;52.006;4.720;2023-03-23T03:47:06;99911.69;;;12.82;100.00
18436;BME280;9346;52.006;4.720;2023-03-23T03:49:33;99914.25;;;12.78;100.00
18436;BME280;9346;52.006;4.720;2023-03-23T03:52:02;99908.13;;;12.81;100.00
18436;BME280;9346;52.006;4.720;2023-03-23T03:54:29;99915.25;;;12.82;100.00
18436;BME280;9346;52.006;4.720;2023-03-23T03:56:56;99907.28;;;12.81;100.00
18436;BME280;9346;52.006;4.720;2023-03-23T03:59:23;99916.09;;;12.83;100.00
18436;BME280;9346;52.006;4.720;2023-03-23T04:01:51;99908.31;;;12.85;100.00
18436;BME280;9346;52.006;4.720;2023-03-23T04:04:19;99913.84;;;12.85;100.00
18436;BME280;9346;52.006;4.720;2023-03-23T04:06:47;99910.78;;;12.86;100.00
18436;BME280;9346;52.006;4.720;2023-03-23T04:09:16;99911.41;;;12.83;100.00
18436;BME280;9346;52.006;4.720;2023-03-23T04:11:44;99913.53;;;12.86;100.00
18436;BME280;9346;52.006;4.720;2023-03-23T04:14:11;99925.09;;;12.88;100.00
18436;BME280;9346;52.006;4.720;2023-03-23T04:16:38;99932.38;;;12.84;100.00
18436;BME280;9346;52.006;4.720;2023-03-23T04:19:05;99937.69;;;12.81;100.00
18436;BME280;9346;52.006;4.720;2023-03-23T04:21:32;99927.97;;;12.83;100.00
18436;BME280;9346;52.006;4.720;2023-03-23T04:23:59;99939.03;;;12.83;100.00
18436;BME280;9346;52.006;4.720;2023-03-23T04:26:29;99931.22;;;12.85;100.00
18436;BME280;9346;52.006;4.720;2023-03-23T04:28:57;99940.66;;;12.84;100.00
18436;BME280;9346;52.006;4.720;2023-03-23T04:31:25;99947.94;;;12.80;100.00
18436;BME280;9346;52.006;4.720;2023-03-23T04:33:52;99949.56;;;12.81;100.00
18436;BME280;9346;52.006;4.720;2023-03-23T04:36:19;99936.56;;;12.82;100.00
18436;BME280;9346;52.006;4.720;2023-03-23T04:38:47;99949.25;;;12.83;100.00
18436;BME280;9346;52.006;4.720;2023-03-23T04:41:15;99957.94;;;12.76;100.00
18436;BME280;9346;52.006;4.720;2023-03-23T04:43:44;99968.00;;;12.72;100.00
18436;BME280;9346;52.006;4.720;2023-03-23T04:46:11;99982.44;;;12.69;100.00
18436;BME280;9346;52.006;4.720;2023-03-23T04:48:43;99969.53;;;12.65;100.00
18436;BME280;9346;52.006;4.720;2023-03-23T04:51:10;99980.88;;;12.63;100.00
18436;BME280;9346;52.006;4.720;2023-03-23T04:53:38;99992.06;;;12.58;100.00
18436;BME280;9346;52.006;4.720;2023-03-23T04:56:06;100005.97;;;12.53;100.00
18436;BME280;9346;52.006;4.720;2023-03-23T04:58:33;100003.31;;;12.48;100.00
18436;BME280;9346;52.006;4.720;2023-03-23T05:01:03;100000.66;;;12.43;100.00
18436;BME280;9346;52.006;4.720;2023-03-23T05:03:30;99986.66;;;12.40;100.00
18436;BME280;9346;52.006;4.720;2023-03-23T05:06:01;99993.56;;;12.37;100.00
18436;BME280;9346;52.006;4.720;2023-03-23T05:08:28;99996.94;;;12.34;100.00
18436;BME280;9346;52.006;4.720;2023-03-23T05:10:58;99998.69;;;12.30;100.00
18436;BME280;9346;52.006;4.720;2023-03-23T05:13:26;100001.03;;;12.23;100.00
18436;BME280;9346;52.006;4.720;2023-03-23T05:15:54;99997.25;;;12.19;100.00
18436;BME280;9346;52.006;4.720;2023-03-23T05:18:23;99999.19;;;12.19;100.00
18436;BME280;9346;52.006;4.720;2023-03-23T05:20:51;100014.94;;;12.18;100.00
18436;BME280;9346;52.006;4.720;2023-03-23T05:23:19;100009.41;;;12.18;100.00
18436;BME280;9346;52.006;4.720;2023-03-23T05:25:52;99995.13;;;12.16;100.00
18436;BME280;9346;52.006;4.720;2023-03-23T05:28:20;100006.47;;;12.15;100.00
18436;BME280;9346;52.006;4.720;2023-03-23T05:30:52;100009.22;;;12.15;100.00
18436;BME280;9346;52.006;4.720;2023-03-23T05:33:19;100009.53;;;12.13;100.00
18436;BME280;9346;52.006;4.720;2023-03-23T05:35:48;100024.75;;;12.11;100.00
18436;BME280;9346;52.006;4.720;2023-03-23T05:38:16;100026.16;;;12.08;100.00
18436;BME280;9346;52.006;4.720;2023-03-23T05:40:43;100030.59;;;12.09;100.00
18436;BME280;9346;52.006;4.720;2023-03-23T05:43:10;100033.66;;;12.08;100.00
18436;BME280;9346;52.006;4.720;2023-03-23T05:45:37;100049.06;;;12.09;100.00
18436;BME280;9346;52.006;4.720;2023-03-23T05:48:04;100034.44;;;12.08;100.00
18436;BME280;9346;52.006;4.720;2023-03-23T05:50:32;100036.09;;;12.09;100.00
18436;BME280;9346;52.006;4.720;2023-03-23T05:53:01;100045.47;;;12.08;100.00
18436;BME280;9346;52.006;4.720;2023-03-23T05:55:29;100053.25;;;12.06;100.00
18436;BME280;9346;52.006;4.720;2023-03-23T05:57:56;100047.22;;;12.04;100.00
18436;BME280;9346;52.006;4.720;2023-03-23T06:00:23;100057.66;;;12.07;100.00
18436;BME280;9346;52.006;4.720;2023-03-23T06:02:54;100063.19;;;12.07;100.00
18436;BME280;9346;52.006;4.720;2023-03-23T06:05:22;100059.28;;;12.08;100.00
18436;BME280;9346;52.006;4.720;2023-03-23T06:07:51;100061.25;;;12.08;100.00
18436;BME280;9346;52.006;4.720;2023-03-23T06:10:19;100067.66;;;12.03;100.00
18436;BME280;9346;52.006;4.720;2023-03-23T06:12:47;100062.44;;;12.02;100.00
18436;BME280;9346;52.006;4.720;2023-03-23T06:15:14;100061.63;;;12.01;100.00
18436;BME280;9346;52.006;4.720;2023-03-23T06:17:40;100070.81;;;11.97;100.00
18436;BME280;9346;52.006;4.720;2023-03-23T06:20:09;100069.78;;;11.93;100.00
18436;BME280;9346;52.006;4.720;2023-03-23T06:22:38;100074.47;;;11.92;100.00
18436;BME280;9346;52.006;4.720;2023-03-23T06:25:07;100080.28;;;11.91;100.00
18436;BME280;9346;52.006;4.720;2023-03-23T06:27:36;100074.47;;;11.92;100.00
18436;BME280;9346;52.006;4.720;2023-03-23T06:30:06;100088.25;;;11.92;100.00
18436;BME280;9346;52.006;4.720;2023-03-23T06:32:33;100095.44;;;11.93;100.00
18436;BME280;9346;52.006;4.720;2023-03-23T06:35:00;100088.25;;;11.92;100.00
18436;BME280;9346;52.006;4.720;2023-03-23T06:37:30;100089.09;;;11.93;100.00
18436;BME280;9346;52.006;4.720;2023-03-23T06:39:57;100093.47;;;11.94;100.00
18436;BME280;9346;52.006;4.720;2023-03-23T06:42:24;100089.91;;;11.93;100.00
18436;BME280;9346;52.006;4.720;2023-03-23T06:44:53;100097.06;;;11.94;100.00
18436;BME280;9346;52.006;4.720;2023-03-23T06:47:22;100093.19;;;11.95;100.00
18436;BME280;9346;52.006;4.720;2023-03-23T06:49:49;100096.47;;;11.97;100.00
18436;BME280;9346;52.006;4.720;2023-03-23T06:52:17;100093.19;;;11.95;100.00
18436;BME280;9346;52.006;4.720;2023-03-23T06:54:44;100100.44;;;11.91;100.00
18436;BME280;9346;52.006;4.720;2023-03-23T06:57:11;100097.66;;;11.91;100.00
18436;BME280;9346;52.006;4.720;2023-03-23T06:59:38;100102.59;;;11.94;100.00
18436;BME280;9346;52.006;4.720;2023-03-23T07:02:08;100097.06;;;11.94;100.00
18436;BME280;9346;52.006;4.720;2023-03-23T07:04:36;100099.28;;;11.92;100.00
18436;BME280;9346;52.006;4.720;2023-03-23T07:07:04;100106.97;;;11.95;100.00
18436;BME280;9346;52.006;4.720;2023-03-23T07:09:31;100103.41;;;11.95;100.00
18436;BME280;9346;52.006;4.720;2023-03-23T07:11:58;100102.00;;;11.97;100.00
18436;BME280;9346;52.006;4.720;2023-03-23T07:14:24;100104.22;;;11.95;100.00
18436;BME280;9346;52.006;4.720;2023-03-23T07:16:52;100095.63;;;11.97;100.00
18436;BME280;9346;52.006;4.720;2023-03-23T07:19:20;100098.94;;;11.99;100.00
18436;BME280;9346;52.006;4.720;2023-03-23T07:21:47;100103.63;;;11.98;100.00
18436;BME280;9346;52.006;4.720;2023-03-23T07:24:15;100125.69;;;11.98;100.00
18436;BME280;9346;52.006;4.720;2023-03-23T07:26:43;100121.53;;;12.01;100.00
18436;BME280;9346;52.006;4.720;2023-03-23T07:29:11;100107.22;;;11.99;100.00
18436;BME280;9346;52.006;4.720;2023-03-23T07:31:38;100118.16;;;12.04;100.00
18436;BME280;9346;52.006;4.720;2023-03-23T07:34:05;100107.94;;;12.04;100.00
18436;BME280;9346;52.006;4.720;2023-03-23T07:36:33;100111.22;;;12.06;100.00
18436;BME280;9346;52.006;4.720;2023-03-23T07:39:02;100101.53;;;12.09;100.00
18436;BME280;9346;52.006;4.720;2023-03-23T07:41:30;100091.91;;;12.06;100.00
18436;BME280;9346;52.006;4.720;2023-03-23T07:43:57;100111.84;;;12.03;100.00
18436;BME280;9346;52.006;4.720;2023-03-23T07:46:24;100119.28;;;12.03;100.00
18436;BME280;9346;52.006;4.720;2023-03-23T07:48:51;100125.09;;;12.01;100.00
18436;BME280;9346;52.006;4.720;2023-03-23T07:51:18;100132.56;;;12.01;100.00
18436;BME280;9346;52.006;4.720;2023-03-23T07:53:46;100138.00;;;12.06;100.00
18436;BME280;9346;52.006;4.720;2023-03-23T07:56:14;100145.63;;;12.14;100.00
18436;BME280;9346;52.006;4.720;2023-03-23T07:58:44;100140.53;;;12.21;100.00
18436;BME280;9346;52.006;4.720;2023-03-23T08:01:11;100142.69;;;12.24;100.00
18436;BME280;9346;52.006;4.720;2023-03-23T08:03:39;100143.47;;;12.24;100.00
18436;BME280;9346;52.006;4.720;2023-03-23T08:06:06;100145.63;;;12.27;100.00
18436;BME280;9346;52.006;4.720;2023-03-23T08:08:34;100149.75;;;12.30;100.00
18436;BME280;9346;52.006;4.720;2023-03-23T08:11:02;100142.28;;;12.30;100.00
18436;BME280;9346;52.006;4.720;2023-03-23T08:13:30;100146.06;;;12.34;100.00
18436;BME280;9346;52.006;4.720;2023-03-23T08:15:58;100141.97;;;12.32;100.00
18436;BME280;9346;52.006;4.720;2023-03-23T08:18:28;100149.97;;;12.33;100.00
18436;BME280;9346;52.006;4.720;2023-03-23T08:20:55;100157.03;;;12.39;100.00
18436;BME280;9346;52.006;4.720;2023-03-23T08:23:22;100165.44;;;12.48;100.00
18436;BME280;9346;52.006;4.720;2023-03-23T08:25:49;100158.34;;;12.60;100.00
18436;BME280;9346;52.006;4.720;2023-03-23T08:28:18;100165.19;;;12.63;100.00
18436;BME280;9346;52.006;4.720;2023-03-23T08:30:45;100163.38;;;12.72;100.00
18436;BME280;9346;52.006;4.720;2023-03-23T08:33:12;100168.47;;;12.78;100.00
18436;BME280;9346;52.006;4.720;2023-03-23T08:35:39;100157.13;;;12.80;100.00
18436;BME280;9346;52.006;4.720;2023-03-23T08:38:08;100165.63;;;12.83;100.00
18436;BME280;9346;52.006;4.720;2023-03-23T08:40:35;100163.06;;;12.87;100.00
18436;BME280;9346;52.006;4.720;2023-03-23T08:43:06;100170.88;;;12.85;100.00
18436;BME280;9346;52.006;4.720;2023-03-23T08:45:34;100173.41;;;12.81;100.00
18436;BME280;9346;52.006;4.720;2023-03-23T08:48:01;100167.88;;;12.81;100.00
18436;BME280;9346;52.006;4.720;2023-03-23T08:50:28;100172.78;;;12.84;100.00
18436;BME280;9346;52.006;4.720;2023-03-23T08:52:55;100170.03;;;12.84;100.00
18436;BME280;9346;52.006;4.720;2023-03-23T08:55:23;100167.50;;;12.88;100.00
18436;BME280;9346;52.006;4.720;2023-03-23T08:57:51;100171.88;;;12.89;100.00
18436;BME280;9346;52.006;4.720;2023-03-23T09:00:20;100164.63;;;12.93;100.00
18436;BME280;9346;52.006;4.720;2023-03-23T09:02:52;100159.91;;;12.93;100.00
18436;BME280;9346;52.006;4.720;2023-03-23T09:05:22;100155.72;;;12.96;100.00
18436;BME280;9346;52.006;4.720;2023-03-23T09:07:52;100159.31;;;12.96;100.00
18436;BME280;9346;52.006;4.720;2023-03-23T09:10:19;100167.59;;;12.96;100.00
18436;BME280;9346;52.006;4.720;2023-03-23T09:12:47;100155.19;;;12.94;100.00
18436;BME280;9346;52.006;4.720;2023-03-23T09:15:15;100154.56;;;12.97;100.00
18436;BME280;9346;52.006;4.720;2023-03-23T09:17:44;100152.59;;;13.02;100.00
18436;BME280;9346;52.006;4.720;2023-03-23T09:20:15;100154.94;;;13.09;100.00
18436;BME280;9346;52.006;4.720;2023-03-23T09:22:46;100146.03;;;13.12;100.00
18436;BME280;9346;52.006;4.720;2023-03-23T09:25:15;100150.31;;;13.18;100.00
18436;BME280;9346;52.006;4.720;2023-03-23T09:27:45;100147.25;;;13.19;100.00
18436;BME280;9346;52.006;4.720;2023-03-23T09:30:14;100154.41;;;13.20;100.00
18436;BME280;9346;52.006;4.720;2023-03-23T09:32:44;100152.34;;;13.26;100.00
18436;BME280;9346;52.006;4.720;2023-03-23T09:35:15;100159.13;;;13.33;100.00
18436;BME280;9346;52.006;4.720;2023-03-23T09:37:43;100157.06;;;13.39;100.00
18436;BME280;9346;52.006;4.720;2023-03-23T09:40:14;100161.28;;;13.36;100.00
18436;BME280;9346;52.006;4.720;2023-03-23T09:43:06;100175.63;;;13.38;100.00
18436;BME280;9346;52.006;4.720;2023-03-23T09:45:43;100172.25;;;13.41;100.00
18436;BME280;9346;52.006;4.720;2023-03-23T09:48:33;100182.78;;;13.39;100.00
18436;BME280;9346;52.006;4.720;2023-03-23T09:51:10;100175.09;;;13.50;100.00
18436;BME280;9346;52.006;4.720;2023-03-23T09:53:40;100169.13;;;13.57;100.00
18436;BME280;9346;52.006;4.720;2023-03-23T09:56:11;100173.25;;;13.59;100.00
18436;BME280;9346;52.006;4.720;2023-03-23T09:58:45;100177.19;;;13.67;100.00
18436;BME280;9346;52.006;4.720;2023-03-23T10:01:17;100189.00;;;13.72;100.00
18436;BME280;9346;52.006;4.720;2023-03-23T10:03:47;100189.31;;;13.71;100.00
18436;BME280;9346;52.006;4.720;2023-03-23T10:06:17;100206.63;;;13.76;100.00
18436;BME280;9346;52.006;4.720;2023-03-23T10:08:46;100196.47;;;13.85;100.00
18436;BME280;9346;52.006;4.720;2023-03-23T10:11:19;100201.88;;;13.90;100.00
18436;BME280;9346;52.006;4.720;2023-03-23T10:14:00;100199.31;;;13.94;100.00
18436;BME280;9346;52.006;4.720;2023-03-23T10:16:30;100198.16;;;13.95;100.00
18436;BME280;9346;52.006;4.720;2023-03-23T10:19:01;100196.81;;;14.06;100.00
18436;BME280;9346;52.006;4.720;2023-03-23T10:21:35;100205.31;;;14.09;100.00
18436;BME280;9346;52.006;4.720;2023-03-23T10:24:09;100199.97;;;14.13;100.00
18436;BME280;9346;52.006;4.720;2023-03-23T10:26:43;100193.81;;;14.16;100.00
18436;BME280;9346;52.006;4.720;2023-03-23T10:29:15;100204.44;;;14.22;100.00
18436;BME280;9346;52.006;4.720;2023-03-23T10:31:47;100199.75;;;14.23;100.00
18436;BME280;9346;52.006;4.720;2023-03-23T10:34:19;100192.56;;;14.22;100.00
18436;BME280;9346;52.006;4.720;2023-03-23T10:36:56;100189.69;;;14.27;100.00
18436;BME280;9346;52.006;4.720;2023-03-23T10:39:29;100184.34;;;14.30;100.00
18436;BME280;9346;52.006;4.720;2023-03-23T10:42:00;100182.25;;;14.36;100.00
18436;BME280;9346;52.006;4.720;2023-03-23T10:44:32;100187.97;;;14.39;100.00
18436;BME280;9346;52.006;4.720;2023-03-23T10:47:01;100189.69;;;14.49;100.00
18436;BME280;9346;52.006;4.720;2023-03-23T10:49:33;100198.75;;;14.63;100.00
18436;BME280;9346;52.006;4.720;2023-03-23T10:52:09;100185.31;;;14.78;100.00
18436;BME280;9346;52.006;4.720;2023-03-23T10:54:39;100193.69;;;14.87;100.00
18436;BME280;9346;52.006;4.720;2023-03-23T10:57:24;100193.38;;;14.88;100.00
18436;BME280;9346;52.006;4.720;2023-03-23T10:59:58;100198.88;;;14.80;100.00
18436;BME280;9346;52.006;4.720;2023-03-23T11:02:26;100209.75;;;14.76;100.00
18436;BME280;9346;52.006;4.720;2023-03-23T11:04:56;100192.94;;;14.73;100.00
18436;BME280;9346;52.006;4.720;2023-03-23T11:07:31;100195.72;;;14.73;100.00
18436;BME280;9346;52.006;4.720;2023-03-23T11:10:07;100191.31;;;14.72;100.00
18436;BME280;9346;52.006;4.720;2023-03-23T11:12:35;100186.41;;;14.69;100.00
18436;BME280;9346;52.006;4.720;2023-03-23T11:15:21;100189.84;;;14.74;100.00
18436;BME280;9346;52.006;4.720;2023-03-23T11:17:55;100187.59;;;14.76;100.00
18436;BME280;9346;52.006;4.720;2023-03-23T11:20:24;100194.91;;;14.72;100.00
18436;BME280;9346;52.006;4.720;2023-03-23T11:22:53;100193.09;;;14.68;100.00
18436;BME280;9346;52.006;4.720;2023-03-23T11:25:21;100194.19;;;14.67;100.00
18436;BME280;9346;52.006;4.720;2023-03-23T11:27:49;100202.03;;;14.65;100.00
18436;BME280;9346;52.006;4.720;2023-03-23T11:30:24;100201.34;;;14.59;100.00
18436;BME280;9346;52.006;4.720;2023-03-23T11:32:53;100196.59;;;14.60;100.00
18436;BME280;9346;52.006;4.720;2023-03-23T11:35:23;100191.38;;;14.58;100.00
18436;BME280;9346;52.006;4.720;2023-03-23T11:37:54;100191.69;;;14.57;100.00
18436;BME280;9346;52.006;4.720;2023-03-23T11:40:24;100201.97;;;14.56;100.00
18436;BME280;9346;52.006;4.720;2023-03-23T11:42:57;100184.66;;;14.51;100.00
18436;BME280;9346;52.006;4.720;2023-03-23T11:45:33;100196.53;;;14.51;100.00
18436;BME280;9346;52.006;4.720;2023-03-23T11:48:14;100189.44;;;14.59;100.00
18436;BME280;9346;52.006;4.720;2023-03-23T11:50:50;100178.22;;;14.64;100.00
18436;BME280;9346;52.006;4.720;2023-03-23T11:53:26;100193.09;;;14.68;100.00
18436;BME280;9346;52.006;4.720;2023-03-23T11:56:06;100193.25;;;14.71;100.00
18436;BME280;9346;52.006;4.720;2023-03-23T11:58:36;100194.59;;;14.74;100.00
18436;BME280;9346;52.006;4.720;2023-03-23T12:01:06;100201.25;;;14.73;100.00
18436;BME280;9346;52.006;4.720;2023-03-23T12:03:51;100193.56;;;14.70;100.00
18436;BME280;9346;52.006;4.720;2023-03-23T12:06:29;100199.75;;;14.67;100.00
18436;BME280;9346;52.006;4.720;2023-03-23T12:09:16;100202.03;;;14.65;100.00
18436;BME280;9346;52.006;4.720;2023-03-23T12:11:58;100200.78;;;14.71;100.00
18436;BME280;9346;52.006;4.720;2023-03-23T12:14:36;100201.13;;;14.78;100.00
18436;BME280;9346;52.006;4.720;2023-03-23T12:17:15;100194.31;;;14.84;100.00
18436;BME280;9346;52.006;4.720;2023-03-23T12:19:55;100190.41;;;14.85;100.00
18436;BME280;9346;52.006;4.720;2023-03-23T12:22:35;100179.31;;;14.85;100.00
18436;BME280;9346;52.006;4.720;2023-03-23T12:25:20;100188.94;;;14.87;100.00
18436;BME280;9346;52.006;4.720;2023-03-23T12:27:52;100187.88;;;14.97;100.00
18436;BME280;9346;52.006;4.720;2023-03-23T12:30:29;100184.13;;;15.01;100.00
18436;BME280;9346;52.006;4.720;2023-03-23T12:33:08;100176.13;;;15.00;100.00
18436;BME280;9346;52.006;4.720;2023-03-23T12:35:46;100185.09;;;14.97;100.00
18436;BME280;9346;52.006;4.720;2023-03-23T12:38:37;100177.09;;;14.95;100.00
18436;BME280;9346;52.006;4.720;2023-03-23T12:41:16;100182.63;;;14.95;100.00
18436;BME280;9346;52.006;4.720;2023-03-23T12:43:50;100177.88;;;14.96;100.00
18436;BME280;9346;52.006;4.720;2023-03-23T12:46:39;100185.44;;;15.04;100.00
18436;BME280;9346;52.006;4.720;2023-03-23T12:49:12;100172.47;;;15.21;100.00
18436;BME280;9346;52.006;4.720;2023-03-23T12:51:47;100176.78;;;15.36;100.00
18436;BME280;9346;52.006;4.720;2023-03-23T12:54:20;100165.25;;;15.51;100.00
18436;BME280;9346;52.006;4.720;2023-03-23T12:56:55;100174.25;;;15.48;100.00
18436;BME280;9346;52.006;4.720;2023-03-23T12:59:31;100169.66;;;15.52;100.00
18436;BME280;9346;52.006;4.720;2023-03-23T13:02:05;100185.50;;;15.60;100.00
18436;BME280;9346;52.006;4.720;2023-03-23T13:04:37;100190.94;;;15.65;100.00
18436;BME280;9346;52.006;4.720;2023-03-23T13:07:06;100194.53;;;15.66;100.00
18436;BME280;9346;52.006;4.720;2023-03-23T13:09:43;100192.72;;;15.61;100.00
18436;BME280;9346;52.006;4.720;2023-03-23T13:12:15;100196.47;;;15.56;100.00